Time;durP1;ratioP1;P1;durP2;ratioP2;P2;SDS_P1;SDS_P2;PMS_P1;PMS_P2;Temp;Humidity;BMP_temperature;BMP_pressure;BME280_temperature;BME280_humidity;BME280_pressure;Samples;Min_cycle;Max_cycle;Signal;HPM_P1;HPM_P2
2023/12/27 00:01:56;;;;;;;6.20;4.63;;;7.30;99.90;;;7.96;100.00;98547.75;10450874;28;20657;-69
2023/12/27 00:06:59;;;;;;;6.07;5.13;;;7.30;99.90;;;7.90;100.00;98552.38;10453278;28;20253;-70
2023/12/27 00:12:02;;;;;;;6.73;5.80;;;7.30;99.90;;;7.99;100.00;98553.06;10454834;28;20237;-70
2023/12/27 00:17:07;;;;;;;5.37;4.97;;;7.30;99.90;;;7.95;100.00;98568.84;10462719;28;20296;-69
2023/12/27 00:22:10;;;;;;;6.07;4.10;;;7.30;99.90;;;7.83;100.00;98562.81;10462941;28;20232;-69
2023/12/27 00:27:13;;;;;;;5.27;4.40;;;7.30;99.90;;;7.86;100.00;98560.50;10451831;28;20294;-69
2023/12/27 00:32:18;;;;;;;4.17;3.77;;;7.30;99.90;;;7.87;100.00;98553.00;10452542;28;20315;-70
2023/12/27 00:37:21;;;;;;;4.80;4.13;;;7.30;99.90;;;7.93;100.00;98547.50;10475799;28;20221;-69
2023/12/27 00:42:24;;;;;;;4.50;4.10;;;7.30;99.90;;;7.92;100.00;98544.84;10458694;28;20236;-70
2023/12/27 00:47:29;;;;;;;3.90;3.50;;;7.30;99.90;;;7.95;100.00;98543.41;10457212;28;20315;-67
2023/12/27 00:52:33;;;;;;;4.93;4.10;;;7.30;99.90;;;7.94;100.00;98544.19;10469400;28;20216;-70
2023/12/27 00:57:36;;;;;;;4.87;4.20;;;7.30;99.90;;;7.94;100.00;98549.28;10459864;28;20301;-69
2023/12/27 01:02:40;;;;;;;4.33;3.93;;;7.30;99.90;;;7.90;100.00;98547.28;10468476;28;20879;-69
2023/12/27 01:07:44;;;;;;;4.40;4.00;;;7.30;99.90;;;7.89;100.00;98555.66;10463674;28;20323;-68
2023/12/27 01:12:48;;;;;;;4.30;4.00;;;7.20;99.90;;;7.76;100.00;98533.47;10471743;28;20224;-68
2023/12/27 01:17:53;;;;;;;4.03;3.73;;;7.10;99.90;;;7.75;100.00;98540.97;10463323;28;21368;-68
2023/12/27 01:22:56;;;;;;;4.67;4.27;;;7.10;99.90;;;7.74;100.00;98554.47;10456718;28;20300;-69
2023/12/27 01:27:59;;;;;;;4.70;3.87;;;7.10;99.90;;;7.75;100.00;98551.13;10462053;28;20231;-68
2023/12/27 01:33:04;;;;;;;4.47;3.37;;;7.10;99.90;;;7.71;100.00;98552.56;10458079;28;20692;-69
2023/12/27 01:38:08;;;;;;;3.93;3.67;;;7.00;99.90;;;7.75;100.00;98556.22;10464633;28;20719;-70
2023/12/27 01:43:11;;;;;;;3.87;3.30;;;7.10;99.90;;;7.75;100.00;98551.13;10477297;28;20761;-69
2023/12/27 01:48:16;;;;;;;4.80;3.30;;;7.10;99.90;;;7.75;100.00;98549.47;10471832;28;20706;-69
2023/12/27 01:53:19;;;;;;;3.97;3.57;;;7.10;99.90;;;7.71;100.00;98556.75;10469991;28;20235;-67
2023/12/27 01:58:23;;;;;;;3.20;3.00;;;7.10;99.90;;;7.75;100.00;98551.13;10473423;28;20246;-69
2023/12/27 02:03:27;;;;;;;4.23;3.90;;;7.10;99.90;;;7.66;100.00;98552.19;10492142;28;20262;-69
2023/12/27 02:08:31;;;;;;;4.10;3.70;;;7.00;99.90;;;7.70;100.00;98544.78;10489145;28;20229;-70
2023/12/27 02:13:34;;;;;;;4.17;3.77;;;7.00;99.90;;;7.70;100.00;98543.16;10483747;28;20305;-68
2023/12/27 02:18:39;;;;;;;4.13;3.57;;;7.00;99.90;;;7.73;100.00;98537.44;10499917;28;20228;-69
2023/12/27 02:23:47;;;;;;;4.47;3.33;;;7.10;99.90;;;7.71;100.00;98533.88;10436693;28;20236;-69
2023/12/27 02:28:51;;;;;;;3.70;3.23;;;7.00;99.90;;;7.73;100.00;98527.25;10493238;28;20230;-68
2023/12/27 02:33:54;;;;;;;3.40;3.10;;;7.00;99.90;;;7.74;100.00;98531.56;10444584;28;20747;-68
2023/12/27 02:38:58;;;;;;;2.93;2.73;;;7.10;99.90;;;7.79;100.00;98533.69;10430832;28;20235;-69
2023/12/27 02:44:02;;;;;;;3.23;2.80;;;7.00;99.90;;;7.75;100.00;98520.59;10482894;28;20228;-68
2023/12/27 02:49:05;;;;;;;3.10;2.90;;;7.00;99.90;;;7.67;100.00;98518.38;10501558;28;20226;-70
2023/12/27 02:54:09;;;;;;;3.30;3.07;;;7.00;99.90;;;7.71;100.00;98508.44;10497894;28;20230;-69
2023/12/27 02:59:13;;;;;;;2.87;2.67;;;7.00;99.90;;;7.75;100.00;98508.75;10498887;28;20235;-67
2023/12/27 03:04:16;;;;;;;3.37;2.97;;;7.00;99.90;;;7.74;100.00;98518.84;10428177;28;20225;-68
2023/12/27 03:09:19;;;;;;;3.60;3.30;;;7.00;99.90;;;7.71;100.00;98510.97;10432386;28;20327;-69
2023/12/27 03:14:26;;;;;;;6.77;3.53;;;7.00;99.90;;;7.77;100.00;98506.34;10494152;28;20234;-69
2023/12/27 03:19:29;;;;;;;3.57;3.20;;;7.10;99.90;;;7.77;100.00;98508.91;10443711;28;20251;-68
2023/12/27 03:24:32;;;;;;;3.83;3.53;;;7.10;99.90;;;7.76;100.00;98500.38;10490124;28;20231;-68
2023/12/27 03:29:37;;;;;;;3.23;3.03;;;7.10;99.90;;;7.71;100.00;98495.69;10447941;28;20227;-69
2023/12/27 03:34:40;;;;;;;3.47;3.17;;;7.00;99.90;;;7.71;100.00;98494.03;10469449;28;20220;-70
2023/12/27 03:39:43;;;;;;;4.20;3.80;;;7.00;99.90;;;7.64;100.00;98491.75;10455425;28;20281;-69
2023/12/27 03:44:52;;;;;;;3.83;3.60;;;6.90;99.90;;;7.64;100.00;98497.78;10464023;28;20250;-71
2023/12/27 03:49:55;;;;;;;4.00;3.70;;;6.90;99.90;;;7.50;100.00;98488.16;10476780;28;20224;-69
2023/12/27 03:54:58;;;;;;;5.20;3.80;;;6.80;99.90;;;7.45;100.00;98489.44;10465948;28;20243;-69
2023/12/27 04:00:04;;;;;;;4.27;3.70;;;6.80;99.90;;;7.46;100.00;98475.94;10451676;28;20221;-68
2023/12/27 04:05:08;;;;;;;4.20;3.90;;;6.80;99.90;;;7.48;100.00;98482.06;10466527;28;20221;-68
2023/12/27 04:10:12;;;;;;;3.93;3.63;;;6.80;99.90;;;7.50;100.00;98479.63;10454271;28;20229;-69
2023/12/27 04:15:16;;;;;;;4.93;3.80;;;6.90;99.90;;;7.49;100.00;98476.19;10456740;28;20236;-69
2023/12/27 04:20:19;;;;;;;4.30;3.93;;;6.90;99.90;;;7.51;100.00;98482.31;10447569;28;20228;-69
2023/12/27 04:25:23;;;;;;;4.47;3.90;;;6.90;99.90;;;7.58;100.00;98476.94;10460864;28;20227;-69
2023/12/27 04:30:27;;;;;;;5.27;3.87;;;6.90;99.90;;;7.54;100.00;98474.91;10499341;28;20247;-68
2023/12/27 04:35:30;;;;;;;4.50;4.00;;;6.90;99.90;;;7.56;100.00;98458.13;10471226;28;20225;-68
2023/12/27 04:40:34;;;;;;;4.70;4.30;;;6.90;99.90;;;7.58;100.00;98470.94;10429980;28;20220;-69
2023/12/27 04:45:38;;;;;;;5.20;4.67;;;6.90;99.90;;;7.49;100.00;98453.31;10424765;28;20315;-69
2023/12/27 04:50:42;;;;;;;7.00;4.87;;;6.90;99.90;;;7.50;100.00;98454.19;10418928;28;20240;-68
2023/12/27 04:55:45;;;;;;;5.47;4.67;;;6.90;99.90;;;7.51;100.00;98450.91;10475694;28;20311;-69
2023/12/27 05:00:49;;;;;;;4.90;4.33;;;6.90;99.90;;;7.40;100.00;98439.88;10489647;28;20243;-69
2023/12/27 05:05:52;;;;;;;5.50;4.43;;;6.70;99.90;;;7.33;100.00;98447.81;10438498;28;20237;-69
2023/12/27 05:10:55;;;;;;;5.03;4.33;;;6.70;99.90;;;7.31;100.00;98444.25;10423065;28;20225;-69
2023/12/27 05:16:00;;;;;;;5.00;4.50;;;6.60;99.90;;;7.46;100.00;98455.59;10423251;28;20235;-70
2023/12/27 05:21:04;;;;;;;5.17;4.73;;;6.70;99.90;;;7.21;100.00;98456.22;10459687;28;21018;-70
2023/12/27 05:26:08;;;;;;;5.57;5.00;;;6.60;99.90;;;7.21;100.00;98463.84;10491892;28;20240;-71
2023/12/27 05:31:12;;;;;;;5.77;5.00;;;6.60;99.90;;;7.25;100.00;98464.09;10474588;28;20697;-72
2023/12/27 05:36:16;;;;;;;5.10;4.63;;;6.60;99.90;;;7.26;100.00;98465.88;10418669;28;20319;-69
2023/12/27 05:41:24;;;;;;;5.20;4.70;;;6.60;99.90;;;7.18;100.00;98463.63;10432981;28;20275;-70
2023/12/27 05:46:29;;;;;;;5.60;4.70;;;6.50;99.90;;;7.13;100.00;98457.28;10496125;28;20244;-69
2023/12/27 05:51:33;;;;;;;5.00;4.60;;;6.50;99.90;;;7.15;100.00;98452.28;10496397;28;20686;-69
2023/12/27 05:56:36;;;;;;;7.47;5.63;;;6.50;99.90;;;7.09;100.00;98446.72;10495287;28;20224;-68
2023/12/27 06:01:47;;;;;;;5.17;4.77;;;6.40;99.90;;;7.11;100.00;98445.19;10472205;28;20237;-68
2023/12/27 06:06:50;;;;;;;9.53;6.80;;;6.40;99.90;;;7.02;100.00;98441.94;10483888;28;20228;-69
2023/12/27 06:11:53;;;;;;;5.97;5.43;;;6.30;99.90;;;6.96;100.00;98437.25;10416593;28;20316;-68
2023/12/27 06:16:58;;;;;;;6.47;5.87;;;6.20;99.90;;;6.92;100.00;98428.47;10418014;28;20736;-69
2023/12/27 06:22:01;;;;;;;7.50;6.47;;;6.20;99.90;;;6.84;100.00;98423.53;10428618;28;20676;-69
2023/12/27 06:27:06;;;;;;;6.63;6.03;;;6.10;99.90;;;6.82;100.00;98425.97;10424191;28;20591;-68
2023/12/27 06:32:12;;;;;;;8.30;6.83;;;6.10;99.90;;;6.79;100.00;98424.84;10425543;28;20240;-70
2023/12/27 06:37:15;;;;;;;9.43;8.53;;;6.10;99.90;;;6.80;100.00;98424.06;10422098;28;20320;-68
2023/12/27 06:42:19;;;;;;;4.90;4.50;;;6.00;99.90;;;6.58;100.00;98422.34;10459099;28;20234;-68
2023/12/27 06:47:23;;;;;;;4.80;4.40;;;6.00;99.90;;;6.63;100.00;98402.38;10476116;28;20575;-69
2023/12/27 06:52:26;;;;;;;4.00;3.57;;;6.00;99.90;;;6.49;100.00;98398.72;10422558;28;20710;-72
2023/12/27 06:57:30;;;;;;;5.27;4.70;;;5.80;99.90;;;6.38;100.00;98402.03;10470795;28;20667;-70
2023/12/27 07:02:34;;;;;;;4.67;4.37;;;5.70;99.90;;;6.49;100.00;98413.94;10490170;28;20698;-69
2023/12/27 07:07:37;;;;;;;6.67;6.07;;;5.80;99.90;;;6.50;100.00;98420.81;10461495;28;20244;-69
2023/12/27 07:12:41;;;;;;;6.27;5.67;;;5.80;99.90;;;6.40;100.00;98419.16;10463577;28;20242;-69
2023/12/27 07:17:46;;;;;;;6.07;5.53;;;5.80;99.90;;;6.40;100.00;98423.38;10445362;28;20246;-69
2023/12/27 07:22:49;;;;;;;6.00;5.40;;;5.70;99.90;;;6.45;100.00;98428.06;10434735;28;20225;-69
2023/12/27 07:27:52;;;;;;;5.83;5.23;;;5.80;99.90;;;6.46;100.00;98429.81;10425404;28;20249;-71
2023/12/27 07:32:56;;;;;;;6.33;5.33;;;5.80;99.90;;;6.39;100.00;98421.59;10452773;28;20227;-69
2023/12/27 07:38:00;;;;;;;5.47;4.97;;;5.70;99.90;;;6.34;100.00;98422.88;10481861;28;20232;-69
2023/12/27 07:43:05;;;;;;;4.93;4.53;;;5.70;99.90;;;6.27;100.00;98435.06;10488748;28;20238;-69
2023/12/27 07:48:09;;;;;;;5.53;5.03;;;5.60;99.90;;;6.32;100.00;98428.72;10432356;28;20761;-70
2023/12/27 07:53:13;;;;;;;8.57;7.17;;;5.70;99.90;;;6.34;100.00;98431.34;10465894;28;20234;-70
2023/12/27 07:58:16;;;;;;;7.00;6.30;;;5.70;99.90;;;6.39;100.00;98421.59;10479476;28;20231;-70
2023/12/27 08:03:20;;;;;;;6.07;5.37;;;5.80;99.90;;;6.41;100.00;98427.66;10470948;28;20232;-71
2023/12/27 08:08:25;;;;;;;7.93;6.43;;;5.80;99.90;;;6.30;100.00;98435.31;10462052;28;20247;-70
2023/12/27 08:13:28;;;;;;;6.60;6.00;;;5.70;99.90;;;6.34;100.00;98449.13;10476619;28;20262;-70
2023/12/27 08:18:32;;;;;;;6.03;5.40;;;5.80;99.90;;;6.38;100.00;98448.66;10449260;28;20508;-71
2023/12/27 08:23:37;;;;;;;8.13;5.47;;;5.80;99.90;;;6.56;100.00;98441.63;10468991;28;20224;-70
2023/12/27 08:28:40;;;;;;;6.00;5.40;;;5.90;99.90;;;6.50;100.00;98433.53;10467466;28;20696;-71
2023/12/27 08:33:48;;;;;;;6.87;5.10;;;5.90;99.90;;;6.48;100.00;98432.50;10438341;28;20316;-71
2023/12/27 08:38:52;;;;;;;6.93;5.80;;;5.90;99.90;;;6.56;100.00;98433.13;10461427;28;20228;-69
2023/12/27 08:43:55;;;;;;;6.70;6.10;;;6.00;99.90;;;6.70;100.00;98446.19;10475525;28;20285;-69
2023/12/27 08:48:59;;;;;;;8.63;7.40;;;6.10;99.90;;;6.86;100.00;98437.25;10437664;28;20603;-70
2023/12/27 08:54:03;;;;;;;7.30;6.60;;;6.20;99.90;;;7.15;100.00;98437.97;10451224;28;20228;-72
2023/12/27 08:59:06;;;;;;;6.33;5.73;;;6.50;99.90;;;7.18;100.00;98425.50;10476663;28;20240;-71
2023/12/27 09:04:10;;;;;;;6.50;5.90;;;6.50;99.90;;;7.33;100.00;98427.47;10486024;28;20242;-71
2023/12/27 09:09:14;;;;;;;5.70;4.87;;;6.70;99.90;;;7.47;100.00;98426.88;10479615;28;20231;-71
2023/12/27 09:14:17;;;;;;;5.37;4.80;;;6.90;99.90;;;7.56;100.00;98416.53;10454631;28;20650;-71
2023/12/27 09:19:21;;;;;;;7.00;4.80;;;7.00;99.90;;;7.68;100.00;98398.00;10443207;28;20228;-71
2023/12/27 09:24:25;;;;;;;6.13;3.90;;;7.10;99.90;;;7.92;100.00;98367.56;10461322;28;20761;-71
2023/12/27 09:29:28;;;;;;;6.67;3.87;;;7.40;99.90;;;8.37;100.00;98374.31;10463184;28;20225;-70
2023/12/27 09:34:32;;;;;;;4.90;3.83;;;7.90;99.90;;;8.48;96.15;98368.38;10461335;28;20339;-70
2023/12/27 09:39:36;;;;;;;7.07;3.83;;;8.10;99.90;;;8.73;93.98;98375.28;10453270;28;21212;-71
2023/12/27 09:44:41;;;;;;;4.63;3.47;;;8.30;99.90;;;9.04;95.85;98373.22;10476920;28;20283;-69
2023/12/27 09:49:46;;;;;;;5.80;3.57;;;8.60;99.90;;;9.27;93.03;98344.28;10444404;28;20306;-71
2023/12/27 09:54:52;;;;;;;4.60;3.70;;;8.80;99.90;;;9.35;89.90;98343.13;10476154;28;20232;-70
2023/12/27 09:59:56;;;;;;;4.57;3.45;;;8.90;99.90;;;9.29;88.17;98354.56;10461444;28;20325;-71
2023/12/27 10:05:16;;;;;;;4.47;3.58;;;8.80;99.90;;;9.29;88.44;98365.66;10483020;28;20232;-70
2023/12/27 10:10:19;;;;;;;4.55;3.58;;;8.70;99.90;;;9.64;86.81;98360.47;10460421;28;20607;-70
2023/12/27 10:15:30;;;;;;;10.25;6.88;;;9.10;99.90;;;10.12;89.06;98350.88;10449874;28;20281;-70
2023/12/27 10:20:38;;;;;;;8.77;7.88;;;9.40;99.90;;;10.20;91.28;98333.53;10449946;28;20772;-69
2023/12/27 10:25:43;;;;;;;5.60;5.07;;;9.60;99.90;;;10.31;89.92;98325.81;10442128;28;20220;-71
2023/12/27 10:30:46;;;;;;;5.28;4.15;;;9.70;99.90;;;10.56;82.48;98312.09;10474922;28;20228;-71
2023/12/27 10:35:51;;;;;;;5.03;3.88;;;9.80;99.90;;;10.51;82.88;98310.91;10450036;28;20352;-71
2023/12/27 10:40:54;;;;;;;4.88;3.15;;;9.90;99.90;;;10.75;79.19;98299.66;10469450;28;20315;-71
2023/12/27 10:45:58;;;;;;;5.18;3.58;;;10.10;99.90;;;10.76;73.68;98298.91;10470616;28;20359;-70
2023/12/27 10:51:03;;;;;;;4.35;3.00;;;10.20;99.90;;;10.91;73.36;98272.53;10474658;28;20225;-71
2023/12/27 10:56:09;;;;;;;4.55;3.20;;;10.30;99.90;;;10.83;67.66;98252.44;10473455;28;20457;-69
2023/12/27 11:01:12;;;;;;;3.92;3.47;;;10.20;99.90;;;11.39;67.24;98238.81;10456083;28;20221;-70
2023/12/27 11:06:18;;;;;;;4.25;3.17;;;10.60;99.90;;;11.36;69.90;98247.94;10481155;28;20740;-69
2023/12/27 11:11:24;;;;;;;4.95;3.13;;;10.80;99.90;;;11.40;69.40;98232.88;10462155;28;20256;-68
2023/12/27 11:16:32;;;;;;;3.67;2.90;;;10.80;99.90;;;11.40;69.24;98239.69;10478880;28;21085;-67
2023/12/27 11:21:40;;;;;;;3.30;2.80;;;10.80;99.90;;;11.50;68.58;98226.63;10461631;28;20308;-68
2023/12/27 11:26:43;;;;;;;3.55;3.10;;;10.80;99.90;;;11.57;65.75;98213.41;10456725;28;20312;-69
2023/12/27 11:31:47;;;;;;;4.05;2.90;;;10.80;99.90;;;11.49;63.86;98206.94;10440284;28;20230;-68
2023/12/27 11:36:52;;;;;;;4.15;2.50;;;10.80;99.90;;;11.77;63.02;98203.44;10461945;28;20637;-68
2023/12/27 11:41:57;;;;;;;4.28;3.45;;;11.00;99.90;;;11.99;60.79;98186.00;10466058;28;20311;-68
2023/12/27 11:47:01;;;;;;;4.13;2.88;;;11.10;99.90;;;11.90;60.37;98182.88;10450238;28;20219;-69
2023/12/27 11:52:06;;;;;;;5.60;3.90;;;11.20;99.90;;;12.09;61.47;98175.44;10456943;28;20586;-69
2023/12/27 11:57:10;;;;;;;3.88;3.10;;;11.30;99.90;;;12.28;59.09;98156.00;10449370;28;20236;-69
2023/12/27 12:02:14;;;;;;;3.42;3.05;;;11.40;99.90;;;12.28;59.29;98151.75;10462971;28;20233;-68
2023/12/27 12:07:55;;;;;;;3.80;2.83;;;11.50;99.90;;;12.34;58.86;98128.13;10446681;28;20221;-68
2023/12/27 12:12:59;;;;;;;3.15;2.88;;;11.50;99.90;;;12.29;58.58;98125.31;10450974;28;20270;-68
2023/12/27 12:18:04;;;;;;;5.13;2.90;;;11.50;99.90;;;12.27;59.71;98108.06;10475308;28;21045;-74
2023/12/27 12:23:11;;;;;;;5.43;3.03;;;11.50;99.90;;;12.25;59.41;98104.56;10445217;28;20746;-68
2023/12/27 12:28:14;;;;;;;3.13;2.35;;;11.50;99.90;;;12.44;58.73;98099.59;10480821;28;20323;-68
2023/12/27 12:33:17;;;;;;;2.72;2.50;;;11.60;99.90;;;12.53;60.03;98087.31;10482197;28;20228;-67
2023/12/27 12:38:23;;;;;;;3.00;2.70;;;11.70;99.90;;;12.51;59.62;98081.19;10458321;28;20248;-67
2023/12/27 12:43:26;;;;;;;2.97;2.67;;;11.60;99.90;;;12.49;58.13;98075.09;10471807;28;20339;-69
2023/12/27 12:48:29;;;;;;;4.15;3.33;;;11.60;99.90;;;12.58;57.54;98070.44;10451255;28;20332;-69
2023/12/27 12:53:34;;;;;;;3.50;3.15;;;11.70;99.90;;;12.64;57.77;98069.91;10441811;28;20226;-68
2023/12/27 12:58:40;;;;;;;3.70;3.40;;;11.70;99.90;;;12.48;57.04;98072.47;10448096;28;20363;-67
2023/12/27 13:03:48;;;;;;;3.00;2.80;;;11.70;99.90;;;12.53;59.93;98061.66;10485197;28;20290;-69
2023/12/27 13:08:54;;;;;;;5.63;3.45;;;11.70;99.90;;;12.55;58.44;98044.66;10484206;28;20336;-68
2023/12/27 13:13:58;;;;;;;5.40;3.97;;;11.70;99.90;;;12.56;61.32;98045.53;10487593;28;20243;-68
2023/12/27 13:19:02;;;;;;;3.95;3.60;;;11.70;99.90;;;12.54;56.53;98037.78;10489963;28;20316;-67
2023/12/27 13:24:07;;;;;;;3.30;3.00;;;11.70;99.90;;;12.57;56.55;98039.63;10490712;28;20229;-69
2023/12/27 13:29:10;;;;;;;8.35;6.25;;;11.80;99.90;;;12.57;61.80;98037.94;10486060;28;20225;-69
2023/12/27 13:34:13;;;;;;;6.90;4.70;;;11.70;99.90;;;12.54;63.56;98021.50;10488235;28;20232;-69
2023/12/27 13:39:19;;;;;;;9.82;6.38;;;11.60;99.90;;;12.48;63.62;98009.25;10470907;28;20315;-69
2023/12/27 13:44:22;;;;;;;5.53;4.13;;;11.60;99.90;;;12.37;65.93;98007.81;10468102;28;20315;-68
2023/12/27 13:49:26;;;;;;;3.72;3.30;;;11.50;99.90;;;12.28;67.62;98003.09;10486097;28;20258;-68
2023/12/27 13:54:30;;;;;;;4.40;3.38;;;11.40;99.90;;;12.15;68.28;98004.09;10484959;28;20239;-67
2023/12/27 13:59:37;;;;;;;3.60;2.97;;;11.30;99.90;;;12.03;69.11;97995.78;10486714;28;20306;-71
2023/12/27 14:04:41;;;;;;;3.75;3.17;;;11.10;99.90;;;11.90;71.10;97993.34;10489275;28;20767;-67
2023/12/27 14:09:46;;;;;;;7.65;6.28;;;11.00;99.90;;;11.75;73.57;97992.50;10489050;28;20248;-68
2023/12/27 14:14:49;;;;;;;11.48;8.73;;;10.90;99.90;;;11.65;74.03;97992.00;10469676;28;20232;-69
2023/12/27 14:19:52;;;;;;;9.70;8.48;;;10.70;99.90;;;11.46;76.21;98000.31;10479768;28;20266;-68
2023/12/27 14:24:57;;;;;;;8.95;8.05;;;10.60;99.90;;;11.26;78.45;98006.00;10444242;28;20724;-67
2023/12/27 14:30:00;;;;;;;8.95;7.60;;;10.30;99.90;;;11.08;78.77;98007.53;10471975;28;20225;-67
2023/12/27 14:35:04;;;;;;;7.15;6.10;;;10.20;99.90;;;10.90;79.10;98012.44;10468350;28;20243;-68
2023/12/27 14:40:10;;;;;;;7.22;6.32;;;10.00;99.90;;;10.72;79.50;98014.81;10459850;28;20715;-69
2023/12/27 14:45:14;;;;;;;6.45;5.65;;;9.80;99.90;;;10.53;79.39;98002.59;10448487;28;20252;-67
2023/12/27 14:50:17;;;;;;;6.15;5.20;;;9.60;99.90;;;10.37;82.68;98004.25;10458025;28;20263;-69
2023/12/27 14:55:22;;;;;;;6.25;5.55;;;9.50;99.90;;;10.19;82.28;98007.34;10481435;28;20224;-70
2023/12/27 15:00:25;;;;;;;4.72;4.32;;;9.30;99.90;;;10.05;83.76;98007.41;10465174;28;20237;-71
2023/12/27 15:05:28;;;;;;;5.65;4.03;;;9.20;99.90;;;9.90;83.85;97999.69;10456863;28;20229;-69
2023/12/27 15:10:32;;;;;;;5.32;4.82;;;9.00;99.90;;;9.79;85.09;98013.44;10470771;28;20224;-69
2023/12/27 15:15:36;;;;;;;4.65;4.25;;;8.90;99.90;;;9.54;88.04;97995.72;10466814;28;20225;-69
2023/12/27 15:20:40;;;;;;;4.10;3.80;;;8.60;99.90;;;9.40;88.28;98002.47;10431688;28;20225;-69
2023/12/27 15:25:45;;;;;;;2.97;2.67;;;8.50;99.90;;;9.15;88.84;98005.13;10437646;28;20229;-69
2023/12/27 15:30:50;;;;;;;3.85;3.55;;;8.40;99.90;;;9.07;89.28;98002.84;10465481;28;20236;-68
2023/12/27 15:35:53;;;;;;;8.88;7.97;;;8.30;99.90;;;8.94;89.70;97999.50;10478954;28;20841;-68
2023/12/27 15:40:58;;;;;;;6.30;5.70;;;8.10;99.90;;;8.81;89.65;98007.13;10457712;28;20343;-68
2023/12/27 15:46:01;;;;;;;6.95;4.85;;;7.90;99.90;;;8.61;90.37;98003.25;10480639;28;20228;-71
2023/12/27 15:51:04;;;;;;;32.80;20.50;;;7.70;99.90;;;8.46;90.76;98003.13;10477431;28;20243;-70
2023/12/27 15:56:09;;;;;;;47.72;26.17;;;7.60;99.90;;;8.21;90.74;97999.66;10472158;28;20228;-71
2023/12/27 16:01:19;;;;;;;29.48;19.02;;;7.40;99.90;;;8.20;91.39;97992.81;10466283;28;20321;-70
2023/12/27 16:06:24;;;;;;;11.70;9.53;;;7.40;99.90;;;8.02;91.53;98000.94;10433033;28;20235;-69
2023/12/27 16:11:28;;;;;;;12.60;9.60;;;7.20;99.90;;;7.90;92.21;97990.81;10478995;28;20236;-67
2023/12/27 16:16:32;;;;;;;8.93;7.60;;;7.10;99.90;;;7.85;92.74;97986.19;10480004;28;20852;-70
2023/12/27 16:21:36;;;;;;;6.18;5.57;;;7.10;99.90;;;7.76;94.17;97991.50;10478790;28;20231;-70
2023/12/27 16:26:40;;;;;;;9.13;8.23;;;7.00;99.90;;;7.66;94.87;97989.09;10466825;28;20431;-71
2023/12/27 16:31:43;;;;;;;9.77;8.60;;;6.90;99.90;;;7.53;94.64;97983.94;10454597;28;20242;-71
2023/12/27 16:36:46;;;;;;;7.87;7.17;;;6.70;99.90;;;7.48;94.22;97996.31;10456679;28;20221;-74
2023/12/27 16:41:51;;;;;;;9.63;7.93;;;6.60;99.90;;;7.31;94.47;98001.84;10444946;28;20718;-71
2023/12/27 16:46:54;;;;;;;10.37;9.00;;;6.50;99.90;;;7.16;92.89;98002.53;10475524;28;20223;-69
2023/12/27 16:51:57;;;;;;;6.10;5.13;;;6.30;99.90;;;7.02;93.89;97998.09;10449369;28;20251;-70
2023/12/27 16:57:02;;;;;;;6.57;5.97;;;6.20;99.90;;;6.91;93.78;98004.91;10443116;28;20220;-71
2023/12/27 17:02:06;;;;;;;13.43;12.30;;;6.10;99.90;;;6.85;93.12;97996.84;10448666;28;20236;-71
2023/12/27 17:07:09;;;;;;;5.60;5.10;;;6.10;99.90;;;6.76;93.07;97993.66;10449979;28;20247;-70
2023/12/27 17:12:16;;;;;;;4.80;4.33;;;6.00;99.90;;;6.63;93.52;97996.03;10466325;28;20315;-69
2023/12/27 17:17:20;;;;;;;9.13;8.23;;;5.90;99.90;;;6.61;94.65;97988.31;10446821;28;20595;-69
2023/12/27 17:22:23;;;;;;;9.60;8.60;;;5.90;99.90;;;6.52;95.85;97987.63;10484745;28;20238;-70
2023/12/27 17:27:27;;;;;;;16.67;12.60;;;5.70;99.90;;;6.49;96.73;97987.38;10473128;28;20229;-68
2023/12/27 17:32:31;;;;;;;14.43;10.73;;;5.70;99.90;;;6.42;96.83;97970.81;10453550;28;20229;-68
2023/12/27 17:37:35;;;;;;;43.53;34.83;;;5.60;99.90;;;6.34;96.62;97982.06;10482059;28;20224;-67
2023/12/27 17:42:39;;;;;;;7.30;6.60;;;5.60;99.90;;;6.19;96.06;97984.31;10463939;28;20597;-67
2023/12/27 17:47:43;;;;;;;10.37;8.73;;;5.40;99.90;;;6.16;96.61;97985.75;10475533;28;20236;-68
2023/12/27 17:52:46;;;;;;;10.83;8.10;;;5.40;99.90;;;6.04;96.53;97980.63;10483011;28;20221;-72
2023/12/27 17:57:50;;;;;;;10.23;9.17;;;5.30;99.90;;;5.98;96.58;97985.22;10474038;28;20316;-71
2023/12/27 18:02:54;;;;;;;9.63;8.67;;;5.20;99.90;;;5.97;96.62;97984.34;10421253;28;20249;-69
2023/12/27 18:07:57;;;;;;;9.73;8.73;;;5.10;99.90;;;5.88;97.97;97988.69;10413582;28;20256;-70
2023/12/27 18:13:01;;;;;;;15.70;11.07;;;5.10;99.90;;;5.75;98.62;97986.84;10465361;28;20232;-69
2023/12/27 18:18:05;;;;;;;17.53;11.83;;;5.00;99.90;;;5.68;97.99;97991.31;10431194;28;20239;-71
2023/12/27 18:23:10;;;;;;;8.27;7.33;;;4.90;99.90;;;5.61;99.41;97992.50;10422655;28;20224;-68
2023/12/27 18:28:14;;;;;;;6.90;6.13;;;4.90;99.90;;;5.56;99.30;97989.59;10419946;28;20279;-70
2023/12/27 18:33:17;;;;;;;10.23;7.57;;;4.80;99.90;;;5.53;99.35;97985.94;10471026;28;20654;-70
2023/12/27 18:38:21;;;;;;;9.33;8.43;;;4.70;99.90;;;5.40;99.18;97991.69;10482921;28;20696;-67
2023/12/27 18:43:26;;;;;;;8.97;8.07;;;4.60;99.90;;;5.35;100.00;97983.75;10454660;28;20237;-68
2023/12/27 18:48:29;;;;;;;9.80;8.43;;;4.60;99.90;;;5.31;99.39;97971.56;10437789;28;20229;-68
2023/12/27 18:53:34;;;;;;;8.83;7.93;;;4.50;99.90;;;5.12;99.56;97968.34;10470228;28;20632;-67
2023/12/27 18:58:39;;;;;;;8.87;8.07;;;4.40;99.90;;;5.08;99.55;97981.53;10491386;28;20229;-71
2023/12/27 19:03:43;;;;;;;8.73;7.27;;;4.40;99.90;;;5.00;99.57;97980.03;10449596;28;20224;-68
2023/12/27 19:08:46;;;;;;;10.67;7.80;;;4.30;99.90;;;5.04;99.63;97969.41;10441511;28;20225;-68
2023/12/27 19:13:52;;;;;;;9.27;8.30;;;4.30;99.90;;;4.96;99.83;97967.13;10441758;28;20358;-69
2023/12/27 19:18:55;;;;;;;8.10;7.40;;;4.30;99.90;;;4.82;99.51;97982.84;10485943;28;20225;-70
2023/12/27 19:23:59;;;;;;;8.83;7.67;;;4.10;99.90;;;4.82;100.00;97987.03;10491595;28;20228;-70
2023/12/27 19:29:04;;;;;;;9.67;8.87;;;4.20;99.90;;;4.89;100.00;97975.00;10473983;28;20220;-70
2023/12/27 19:34:07;;;;;;;9.53;8.63;;;4.20;99.90;;;4.74;100.00;97966.16;10462906;28;20603;-69
2023/12/27 19:39:10;;;;;;;11.10;10.10;;;4.10;99.90;;;4.74;100.00;97979.69;10469264;28;20252;-69
2023/12/27 19:44:15;;;;;;;10.23;9.33;;;4.10;99.90;;;4.76;100.00;97969.72;10423562;28;20320;-69
2023/12/27 19:49:18;;;;;;;9.97;8.97;;;4.00;99.90;;;4.66;100.00;97984.91;10407358;28;20312;-69
2023/12/27 19:54:22;;;;;;;11.87;10.27;;;3.90;99.90;;;4.52;100.00;97976.16;10403456;28;20229;-68
2023/12/27 19:59:26;;;;;;;10.60;9.70;;;3.80;99.90;;;4.49;100.00;97978.44;10410592;28;20721;-69
2023/12/27 20:04:29;;;;;;;10.30;9.30;;;3.80;99.90;;;4.48;100.00;97971.63;10425391;28;20227;-69
2023/12/27 20:09:33;;;;;;;13.47;11.63;;;3.80;99.90;;;4.55;100.00;97989.09;10481986;28;20272;-68
2023/12/27 20:14:38;;;;;;;16.67;13.97;;;3.80;99.90;;;4.40;100.00;97980.22;10494274;28;20227;-71
2023/12/27 20:19:41;;;;;;;14.83;13.27;;;3.70;99.90;;;4.31;100.00;98000.59;10485366;28;20241;-70
2023/12/27 20:24:44;;;;;;;13.47;12.13;;;3.50;99.90;;;4.11;100.00;97990.47;10489548;28;20768;-70
2023/12/27 20:29:51;;;;;;;14.20;12.47;;;3.40;99.90;;;4.04;100.00;97989.97;10485916;28;20641;-70
2023/12/27 20:34:56;;;;;;;12.03;10.83;;;3.40;99.90;;;4.04;100.00;98005.13;10486934;28;20227;-72
2023/12/27 20:40:00;;;;;;;9.53;8.53;;;3.30;99.90;;;4.01;100.00;98002.34;10483760;28;20601;-67
2023/12/27 20:45:05;;;;;;;10.23;9.33;;;3.30;99.90;;;3.96;100.00;98006.13;10481116;28;20310;-69
2023/12/27 20:50:09;;;;;;;11.30;10.17;;;3.20;99.90;;;3.77;100.00;98018.81;10482904;28;20257;-68
2023/12/27 20:55:13;;;;;;;12.43;11.23;;;3.10;99.90;;;3.80;100.00;98026.66;10484649;28;20227;-69
2023/12/27 21:00:18;;;;;;;17.00;14.57;;;3.00;99.90;;;3.72;100.00;98045.38;10488068;28;20250;-67
2023/12/27 21:05:21;;;;;;;14.33;11.30;;;2.90;99.90;;;3.71;100.00;98047.75;10488078;28;20279;-69
2023/12/27 21:10:24;;;;;;;12.47;11.07;;;2.90;99.90;;;3.54;100.00;98057.28;10493783;28;20238;-67
2023/12/27 21:15:29;;;;;;;11.67;10.50;;;2.80;99.90;;;3.34;100.00;98049.59;10495650;28;20370;-66